createdAt,value
2019-03-13T00:04:10.196Z,88.95
2019-03-13T00:06:39.553Z,88.82
2019-03-13T00:09:21.636Z,88.82
2019-03-13T00:11:51.323Z,88.82
2019-03-13T00:14:20.767Z,88.41
2019-03-13T00:16:50.417Z,88.39
2019-03-13T00:19:19.790Z,87.72
2019-03-13T00:21:49.332Z,87.25
2019-03-13T00:24:18.705Z,87.00
2019-03-13T00:26:48.301Z,87.05
2019-03-13T00:29:17.698Z,86.61
2019-03-13T00:31:47.032Z,86.39
2019-03-13T00:34:16.521Z,85.80
2019-03-13T00:36:45.876Z,86.21
2019-03-13T00:39:15.400Z,86.25
2019-03-13T00:41:44.756Z,85.38
2019-03-13T00:44:14.316Z,84.71
2019-03-13T00:46:43.674Z,84.77
2019-03-13T00:49:13.057Z,84.69
2019-03-13T00:51:42.442Z,84.59
2019-03-13T00:54:11.818Z,84.28
2019-03-13T00:56:41.476Z,84.22
2019-03-13T00:59:12.465Z,84.06
2019-03-13T01:07:17.824Z,83.55
2019-03-13T01:09:47.776Z,83.55
2019-03-13T01:12:17.408Z,83.63
2019-03-13T01:14:46.774Z,83.58
2019-03-13T01:17:16.422Z,83.63
2019-03-13T01:20:05.173Z,83.27
2019-03-13T01:22:34.655Z,83.06
2019-03-13T01:25:04.102Z,83.05
2019-03-13T01:27:33.888Z,82.77
2019-03-13T01:30:14.663Z,83.04
2019-03-13T01:33:03.138Z,83.04
2019-03-13T01:35:51.690Z,83.08
2019-03-13T01:38:21.040Z,83.37
2019-03-13T01:40:50.724Z,83.50
2019-03-13T01:43:20.091Z,83.50
2019-03-13T01:45:49.682Z,83.04
2019-03-13T01:48:19.050Z,83.15
2019-03-13T01:50:48.907Z,83.14
2019-03-13T01:53:37.905Z,82.88
2019-03-13T01:56:07.273Z,82.88
2019-03-13T01:58:36.984Z,83.03
2019-03-13T02:01:06.629Z,82.70
2019-03-13T02:03:36.006Z,82.73
2019-03-13T02:06:05.613Z,82.91
2019-03-13T02:08:34.960Z,82.82
2019-03-13T02:14:12.394Z,83.21
2019-03-13T02:16:41.854Z,83.21
2019-03-13T02:19:11.232Z,83.18
2019-03-13T02:21:41.091Z,83.39
2019-03-13T02:24:10.742Z,83.37
2019-03-13T02:26:40.112Z,83.30
2019-03-13T02:29:11.092Z,83.45
2019-03-13T02:31:40.741Z,83.58
2019-03-13T02:34:10.101Z,83.63
2019-03-13T02:36:39.783Z,83.76
2019-03-13T02:39:09.153Z,83.90
2019-03-13T02:41:39.087Z,83.97
2019-03-13T02:44:09.152Z,84.08
2019-03-13T02:46:38.852Z,83.64
2019-03-13T02:49:08.226Z,83.33
2019-03-13T02:51:37.842Z,83.37
2019-03-13T02:54:07.199Z,83.24
2019-03-13T02:56:36.827Z,83.13
2019-03-13T02:59:06.512Z,83.00
2019-03-13T03:01:55.384Z,82.43
2019-03-13T03:04:44.325Z,81.92
2019-03-13T03:07:14.024Z,81.92
2019-03-13T03:09:43.374Z,81.80
2019-03-13T03:12:12.993Z,81.91
2019-03-13T03:17:44.491Z,81.94
2019-03-13T03:20:54.218Z,81.75
2019-03-13T03:23:23.888Z,81.66
2019-03-13T03:25:53.440Z,81.60
2019-03-13T03:28:23.075Z,81.66
2019-03-13T03:30:53.694Z,81.38
2019-03-13T03:33:23.081Z,81.57
2019-03-13T03:35:53.398Z,81.64
2019-03-13T03:38:24.659Z,81.88
2019-03-13T03:40:55.634Z,81.35
2019-03-13T03:43:39.561Z,81.33
2019-03-13T03:46:15.355Z,81.36
2019-03-13T03:48:45.003Z,80.97
2019-03-13T03:51:14.364Z,80.97
2019-03-13T03:53:44.008Z,81.50
2019-03-13T03:56:13.396Z,81.34
2019-03-13T03:58:43.029Z,81.38
2019-03-13T04:01:12.396Z,81.08
2019-03-13T04:03:42.035Z,81.01
2019-03-13T04:06:12.057Z,80.87
2019-03-13T04:08:41.442Z,80.63
2019-03-13T04:11:11.443Z,80.56
2019-03-13T04:13:44.439Z,80.38
2019-03-13T04:16:17.296Z,80.46
2019-03-13T04:18:46.665Z,80.60
2019-03-13T04:21:35.494Z,80.32
2019-03-13T04:24:05.425Z,80.32
2019-03-13T04:26:34.793Z,80.52
2019-03-13T04:29:04.457Z,80.03
2019-03-13T04:31:33.848Z,80.07
2019-03-13T04:34:03.309Z,80.00
2019-03-13T04:36:32.960Z,79.91
2019-03-13T04:39:02.632Z,79.75
2019-03-13T04:41:33.609Z,79.69
2019-03-13T04:44:03.509Z,79.51
2019-03-13T04:46:34.482Z,79.23
2019-03-13T04:49:04.152Z,79.45
2019-03-13T04:51:33.496Z,79.29
2019-03-13T04:54:04.770Z,79.24
2019-03-13T04:56:34.308Z,79.43
2019-03-13T04:59:03.662Z,79.26
2019-03-13T05:01:33.332Z,78.77
2019-03-13T05:04:02.899Z,79.00
2019-03-13T05:06:32.405Z,78.80
2019-03-13T05:09:01.786Z,78.80
2019-03-13T05:11:32.757Z,78.83
2019-03-13T05:14:02.419Z,78.64
2019-03-13T05:16:31.788Z,78.75
2019-03-13T05:19:01.438Z,78.40
2019-03-13T05:21:30.808Z,78.18
2019-03-13T05:24:00.454Z,78.09
2019-03-13T05:26:49.163Z,77.97
2019-03-13T05:29:18.521Z,77.79
2019-03-13T05:31:47.902Z,77.59
2019-03-13T05:34:17.813Z,77.77
2019-03-13T05:36:47.828Z,77.77
2019-03-13T05:39:37.146Z,77.31
2019-03-13T05:42:06.718Z,77.31
2019-03-13T05:44:36.730Z,77.29
2019-03-13T05:47:06.733Z,77.11
2019-03-13T05:49:36.161Z,77.28
2019-03-13T05:52:05.890Z,77.58
2019-03-13T05:54:35.509Z,77.46
2019-03-13T05:57:05.013Z,77.46
2019-03-13T05:59:34.499Z,77.50
2019-03-13T06:02:04.120Z,77.50
2019-03-13T06:04:33.685Z,77.20
2019-03-13T06:07:03.149Z,76.96
2019-03-13T06:09:32.660Z,77.46
2019-03-13T06:12:02.025Z,77.46
2019-03-13T06:14:31.646Z,77.73
2019-03-13T06:17:01.021Z,77.73
2019-03-13T06:19:30.933Z,77.55
2019-03-13T06:22:00.608Z,77.59
2019-03-13T06:24:29.954Z,77.82
2019-03-13T06:26:59.614Z,77.90
2019-03-13T06:29:31.605Z,77.99
2019-03-13T06:32:19.136Z,78.07
2019-03-13T06:34:48.803Z,78.05
2019-03-13T06:37:18.174Z,78.11
2019-03-13T06:39:47.734Z,77.63
2019-03-13T06:42:17.096Z,77.83
2019-03-13T06:48:06.972Z,76.97
2019-03-13T06:50:36.637Z,77.53
2019-03-13T06:53:06.300Z,77.86
2019-03-13T06:55:36.211Z,77.91
2019-03-13T06:58:05.578Z,78.02
2019-03-13T07:01:13.508Z,77.84
2019-03-13T07:09:39.554Z,78.40
2019-03-13T07:23:48.614Z,78.16
2019-03-13T07:26:37.280Z,79.17
2019-03-13T07:29:25.779Z,79.17
2019-03-13T07:32:14.456Z,79.02
2019-03-13T07:35:03.256Z,79.74
2019-03-13T07:40:47.537Z,79.44
2019-03-13T07:49:26.650Z,80.02
2019-03-13T07:52:15.565Z,80.20
2019-03-13T07:58:00.497Z,80.10
2019-03-13T08:03:29.268Z,79.56
2019-03-13T08:06:17.778Z,79.17
2019-03-13T08:11:59.432Z,78.96
2019-03-13T08:26:43.427Z,79.59
2019-03-13T08:29:32.189Z,79.28
2019-03-13T08:32:20.960Z,79.84
2019-03-13T08:40:51.916Z,80.47
2019-03-13T08:43:59.897Z,80.74
2019-03-13T08:49:28.779Z,80.64
2019-03-13T08:52:17.565Z,80.43
2019-03-13T08:55:06.064Z,80.35
2019-03-13T08:57:54.543Z,80.52
2019-03-13T09:00:43.364Z,80.33
2019-03-13T09:03:31.834Z,80.08
2019-03-13T09:06:20.653Z,80.29
2019-03-13T09:09:09.130Z,80.68
2019-03-13T09:11:57.686Z,80.35
2019-03-13T09:14:46.177Z,80.16
2019-03-13T09:17:34.703Z,79.68
2019-03-13T09:20:44.389Z,79.64
2019-03-13T09:34:44.039Z,79.67
2019-03-13T09:37:32.634Z,79.85
2019-03-13T09:46:27.125Z,80.50
2019-03-13T09:49:15.906Z,80.31
2019-03-13T09:55:00.371Z,79.96
2019-03-13T09:57:49.278Z,79.33
2019-03-13T10:00:35.625Z,80.62
2019-03-13T10:06:03.018Z,80.77
2019-03-13T10:08:51.753Z,82.40
2019-03-13T10:11:40.232Z,82.40
2019-03-13T10:14:29.022Z,82.98
2019-03-13T10:17:18.077Z,83.43
2019-03-13T10:20:06.861Z,83.59
2019-03-13T10:22:55.349Z,84.26
2019-03-13T10:28:56.970Z,85.20
2019-03-13T10:31:46.822Z,86.08
2019-03-13T10:34:40.984Z,86.46
2019-03-13T10:40:44.494Z,86.71
2019-03-13T10:43:33.001Z,86.21
2019-03-13T10:46:21.502Z,86.43
2019-03-13T10:49:10.262Z,86.51
2019-03-13T10:51:58.970Z,86.58
2019-03-13T10:58:02.812Z,87.32
2019-03-13T11:03:46.797Z,86.70
2019-03-13T11:06:35.561Z,87.33
2019-03-13T11:09:45.183Z,87.59
2019-03-13T11:15:43.581Z,88.11
2019-03-13T11:18:32.083Z,88.11
2019-03-13T11:21:20.582Z,88.06
2019-03-13T11:24:21.513Z,88.29
2019-03-13T11:27:10.135Z,88.02
2019-03-13T11:35:54.514Z,87.54
2019-03-13T11:38:37.838Z,87.56
2019-03-13T11:41:26.446Z,87.56
2019-03-13T11:44:15.267Z,87.08
2019-03-13T11:47:04.031Z,86.93
2019-03-13T11:49:52.529Z,87.15
2019-03-13T11:52:38.863Z,87.83
2019-03-13T11:55:48.569Z,87.83
2019-03-13T11:58:56.458Z,86.93
2019-03-13T12:01:45.995Z,87.45
2019-03-13T12:04:52.370Z,87.45
2019-03-13T12:08:00.442Z,87.17
2019-03-13T12:11:01.058Z,86.64
2019-03-13T12:13:49.545Z,86.64
2019-03-13T12:16:58.241Z,86.25
2019-03-13T12:22:42.340Z,86.95
2019-03-13T12:28:32.406Z,87.73
2019-03-13T12:31:20.910Z,89.01
2019-03-13T12:37:05.447Z,89.54
2019-03-13T12:39:54.187Z,90.82
2019-03-13T12:42:42.677Z,91.81
2019-03-13T12:52:19.966Z,93.09
2019-03-13T12:58:17.866Z,93.09
2019-03-13T13:01:06.530Z,93.00
2019-03-13T13:03:55.001Z,92.49
2019-03-13T13:09:38.900Z,93.60
2019-03-13T13:18:24.566Z,92.27
2019-03-13T13:20:55.380Z,93.82
2019-03-13T13:23:26.331Z,93.82
2019-03-13T13:25:55.686Z,93.85
2019-03-13T13:28:26.679Z,94.21
2019-03-13T13:30:56.332Z,93.88
2019-03-13T13:33:25.701Z,93.76
2019-03-13T13:35:55.729Z,94.20
2019-03-13T13:38:25.367Z,94.38
2019-03-13T13:40:56.050Z,94.67
2019-03-13T13:43:25.399Z,95.32
2019-03-13T13:46:35.778Z,94.99
2019-03-13T13:49:05.671Z,95.03
2019-03-13T13:51:35.045Z,95.84
2019-03-13T13:54:05.057Z,95.11
2019-03-13T13:56:34.528Z,94.51
2019-03-13T13:59:04.169Z,94.95
2019-03-13T14:01:33.556Z,95.32
2019-03-13T14:04:02.902Z,95.96
2019-03-13T14:06:32.580Z,96.60
2019-03-13T14:09:02.288Z,96.68
2019-03-13T14:11:33.522Z,95.86
2019-03-13T14:14:02.883Z,96.09
2019-03-13T14:16:32.494Z,96.09
2019-03-13T14:19:02.136Z,96.51
2019-03-13T14:21:31.645Z,96.44
2019-03-13T14:24:41.037Z,96.73
2019-03-13T14:27:14.798Z,96.88
2019-03-13T14:30:00.847Z,97.44
2019-03-13T14:32:31.856Z,97.91
2019-03-13T14:35:01.481Z,98.13
2019-03-13T14:37:30.837Z,98.27
2019-03-13T14:40:00.185Z,98.37
2019-03-13T14:42:29.743Z,98.65
2019-03-13T14:44:59.098Z,98.80
2019-03-13T14:47:28.633Z,98.47
2019-03-13T14:49:57.976Z,97.74
2019-03-13T14:52:39.838Z,97.24
2019-03-13T14:55:29.121Z,97.24
2019-03-13T14:57:58.779Z,97.39
2019-03-13T15:00:28.194Z,97.52
2019-03-13T15:02:57.856Z,97.60
2019-03-13T15:05:27.492Z,97.80
2019-03-13T15:07:56.980Z,97.05
2019-03-13T15:10:26.667Z,97.03
2019-03-13T15:12:56.053Z,96.66
2019-03-13T15:15:25.690Z,96.88
2019-03-13T15:17:56.160Z,96.92
2019-03-13T15:23:46.678Z,96.61
2019-03-13T15:26:29.630Z,95.43
2019-03-13T15:28:59.289Z,95.43
2019-03-13T15:31:41.383Z,95.12
2019-03-13T15:34:10.843Z,95.77
2019-03-13T15:36:40.191Z,95.77
2019-03-13T15:39:09.845Z,96.21
2019-03-13T15:41:40.821Z,96.79
2019-03-13T15:44:10.470Z,96.96
2019-03-13T15:46:52.022Z,97.32
2019-03-13T15:52:25.246Z,97.50
2019-03-13T15:54:54.900Z,97.28
2019-03-13T15:57:24.246Z,97.62
2019-03-13T16:00:24.438Z,97.91
2019-03-13T16:02:55.681Z,97.91
2019-03-13T16:05:44.032Z,97.97
2019-03-13T16:08:13.979Z,98.41
2019-03-13T16:10:43.324Z,98.81
2019-03-13T16:13:12.974Z,98.34
2019-03-13T16:18:38.809Z,97.59
2019-03-13T16:21:08.245Z,98.02
2019-03-13T16:23:37.933Z,98.18
2019-03-13T16:26:07.573Z,97.83
2019-03-13T16:28:37.048Z,97.28
2019-03-13T16:34:02.211Z,95.95
2019-03-13T16:39:33.510Z,95.39
2019-03-13T16:42:03.154Z,95.13
2019-03-13T16:44:32.509Z,95.05
2019-03-13T16:47:02.143Z,94.96
2019-03-13T16:49:31.526Z,95.15
2019-03-13T16:52:01.142Z,94.84
2019-03-13T16:54:31.127Z,94.32
2019-03-13T17:00:02.604Z,94.75
2019-03-13T17:02:33.570Z,94.87
2019-03-13T17:05:15.950Z,95.13
2019-03-13T17:07:45.354Z,95.38
2019-03-13T17:10:55.060Z,95.48
2019-03-13T17:13:24.404Z,95.02
2019-03-13T17:15:54.057Z,94.21
2019-03-13T17:18:23.397Z,94.04
2019-03-13T17:20:52.756Z,93.17
2019-03-13T17:23:34.196Z,92.41
2019-03-13T17:26:03.556Z,92.41
2019-03-13T17:28:53.500Z,92.45
2019-03-13T17:31:23.144Z,92.45
2019-03-13T17:33:52.732Z,92.01
2019-03-13T17:36:22.168Z,92.18
2019-03-13T17:38:51.510Z,92.18
2019-03-13T17:41:21.119Z,92.64
2019-03-13T17:43:50.476Z,92.55
2019-03-13T17:46:20.131Z,92.25
2019-03-13T17:49:10.669Z,92.53
2019-03-13T17:51:40.356Z,92.84
2019-03-13T17:54:10.057Z,92.84
2019-03-13T17:56:39.484Z,93.27
2019-03-13T17:59:08.845Z,93.27
2019-03-13T18:01:38.375Z,93.66
2019-03-13T18:04:07.822Z,93.69
2019-03-13T18:06:37.366Z,94.18
2019-03-13T18:12:09.501Z,94.45
2019-03-13T18:14:38.872Z,94.95
2019-03-13T18:17:08.507Z,95.23
2019-03-13T18:19:37.876Z,95.37
2019-03-13T18:22:07.508Z,95.56
2019-03-13T18:24:36.863Z,95.63
2019-03-13T18:27:06.662Z,95.80
2019-03-13T18:29:36.001Z,95.75
2019-03-13T18:32:05.645Z,95.88
2019-03-13T18:34:36.630Z,95.90
2019-03-13T18:37:06.005Z,95.83
2019-03-13T18:39:35.497Z,95.02
2019-03-13T18:45:56.769Z,94.16
2019-03-13T18:48:26.400Z,93.77
2019-03-13T18:50:56.944Z,93.53
2019-03-13T18:53:26.615Z,93.05
2019-03-13T18:55:57.017Z,92.01
2019-03-13T18:58:26.858Z,92.03
2019-03-13T19:00:58.197Z,92.03
2019-03-13T19:03:37.701Z,91.16
2019-03-13T19:06:07.103Z,90.74
2019-03-13T19:08:56.024Z,90.23
2019-03-13T19:11:25.739Z,90.10
2019-03-13T19:13:58.084Z,90.10
2019-03-13T19:16:32.019Z,89.90
2019-03-13T19:19:01.668Z,89.76
2019-03-13T19:21:31.056Z,89.63
2019-03-13T19:24:02.590Z,89.55
2019-03-13T19:26:37.036Z,89.22
2019-03-13T19:29:06.721Z,88.86
2019-03-13T19:31:36.072Z,88.83
2019-03-13T19:34:05.705Z,88.52
2019-03-13T19:36:35.092Z,87.97
2019-03-13T19:42:38.758Z,87.94
2019-03-13T19:51:12.339Z,87.18
2019-03-13T19:53:53.876Z,87.70
2019-03-13T19:56:23.239Z,87.70
2019-03-13T19:59:12.136Z,87.63
2019-03-13T20:01:41.801Z,88.10
2019-03-13T20:04:11.155Z,88.10
2019-03-13T20:06:42.523Z,87.89
2019-03-13T20:09:17.393Z,87.81
2019-03-13T20:11:46.895Z,87.69
2019-03-13T20:14:16.235Z,88.01
2019-03-13T20:16:46.714Z,88.53
2019-03-13T20:19:48.409Z,88.54
2019-03-13T20:22:30.541Z,89.25
2019-03-13T20:25:00.394Z,89.25
2019-03-13T20:27:36.976Z,90.97
2019-03-13T20:33:08.360Z,92.01
2019-03-13T20:35:37.926Z,92.59
2019-03-13T20:38:07.287Z,93.22
2019-03-13T20:40:49.244Z,93.81
2019-03-13T20:43:31.710Z,94.02
2019-03-13T20:46:01.246Z,94.02
2019-03-13T20:48:30.610Z,94.19
2019-03-13T20:54:01.645Z,94.16
2019-03-13T20:56:50.350Z,93.27
2019-03-13T20:59:32.916Z,92.85
2019-03-13T21:02:02.294Z,92.85
2019-03-13T21:04:31.938Z,92.07
2019-03-13T21:07:01.569Z,91.77
2019-03-13T21:09:31.153Z,91.60
2019-03-13T21:12:00.522Z,91.51
2019-03-13T21:14:30.157Z,91.56
2019-03-13T21:16:59.555Z,91.52
2019-03-13T21:19:29.035Z,91.52
2019-03-13T21:21:58.701Z,91.51
2019-03-13T21:24:47.495Z,91.68
2019-03-13T21:27:17.186Z,91.87
2019-03-13T21:33:20.637Z,92.18
2019-03-13T21:36:02.431Z,91.49
2019-03-13T21:38:33.104Z,91.49
2019-03-13T21:41:02.741Z,91.36
2019-03-13T21:43:32.339Z,91.66
2019-03-13T21:48:42.507Z,91.80
2019-03-13T21:51:12.175Z,92.88
2019-03-13T21:53:41.521Z,93.49
2019-03-13T21:56:11.217Z,94.05
2019-03-13T21:58:40.564Z,94.61
2019-03-13T22:01:22.445Z,95.02
2019-03-13T22:03:51.793Z,95.02
2019-03-13T22:06:40.526Z,95.48
2019-03-13T22:09:10.474Z,95.48
2019-03-13T22:11:41.443Z,95.61
2019-03-13T22:14:11.123Z,95.83
2019-03-13T22:16:40.742Z,95.99
2019-03-13T22:19:10.394Z,96.54
2019-03-13T22:21:39.744Z,97.01
2019-03-13T22:24:09.403Z,97.40
2019-03-13T22:26:38.762Z,97.48
2019-03-13T22:29:08.424Z,97.23
2019-03-13T22:31:37.792Z,96.95
2019-03-13T22:34:07.803Z,96.71
2019-03-13T22:36:49.334Z,95.45
2019-03-13T22:39:18.690Z,95.45
2019-03-13T22:42:01.285Z,94.17
2019-03-13T22:44:30.653Z,93.45
2019-03-13T22:47:00.062Z,92.86
2019-03-13T22:49:29.516Z,92.64
2019-03-13T22:54:47.488Z,92.50
2019-03-13T22:57:16.831Z,92.46
2019-03-13T23:02:49.600Z,92.03
2019-03-13T23:05:18.950Z,92.12
2019-03-13T23:07:48.618Z,91.88
2019-03-13T23:10:37.310Z,91.88
2019-03-13T23:13:06.953Z,91.90
2019-03-13T23:15:36.610Z,92.10
2019-03-13T23:18:46.032Z,92.10
2019-03-13T23:21:15.680Z,92.39
2019-03-13T23:23:45.042Z,92.63
2019-03-13T23:26:15.023Z,92.56
2019-03-13T23:28:44.667Z,92.98
2019-03-13T23:31:14.022Z,92.98
2019-03-13T23:33:43.955Z,92.70
2019-03-13T23:36:13.597Z,92.60
2019-03-13T23:38:44.766Z,92.60
2019-03-13T23:41:14.157Z,92.74
2019-03-13T23:43:43.721Z,93.22
2019-03-13T23:46:13.902Z,93.22
2019-03-13T23:48:43.632Z,93.95
2019-03-13T23:51:32.614Z,95.13
2019-03-13T23:54:01.984Z,95.13
2019-03-13T23:56:31.637Z,95.72
2019-03-13T23:59:01.021Z,96.17
